sensor_id;sensor_type;location;lat;lon;timestamp;P1;P2;P0
44045;PMS7003;29709;52.396;16.796;2023-03-01T00:01:09;85;68;43
44045;PMS7003;29709;52.396;16.796;2023-03-01T00:04:24;82;67;39
44045;PMS7003;29709;52.396;16.796;2023-03-01T00:07:37;84;72;43
44045;PMS7003;29709;52.396;16.796;2023-03-01T00:14:18;92;76;51
44045;PMS7003;29709;52.396;16.796;2023-03-01T00:17:32;88;75;47
44045;PMS7003;29709;52.396;16.796;2023-03-01T00:20:50;83;67;40
44045;PMS7003;29709;52.396;16.796;2023-03-01T00:24:05;74;56;32
44045;PMS7003;29709;52.396;16.796;2023-03-01T00:27:19;86;71;45
44045;PMS7003;29709;52.396;16.796;2023-03-01T00:30:32;88;73;49
44045;PMS7003;29709;52.396;16.796;2023-03-01T00:33:46;97;81;49
44045;PMS7003;29709;52.396;16.796;2023-03-01T00:36:59;85;69;42
44045;PMS7003;29709;52.396;16.796;2023-03-01T00:40:18;38;30;6
44045;PMS7003;29709;52.396;16.796;2023-03-01T00:43:31;78;61;38
44045;PMS7003;29709;52.396;16.796;2023-03-01T00:46:49;81;67;45
44045;PMS7003;29709;52.396;16.796;2023-03-01T00:50:02;82;66;44
44045;PMS7003;29709;52.396;16.796;2023-03-01T00:53:16;85;68;43
44045;PMS7003;29709;52.396;16.796;2023-03-01T00:56:30;80;60;43
44045;PMS7003;29709;52.396;16.796;2023-03-01T00:59:44;82;65;41
44045;PMS7003;29709;52.396;16.796;2023-03-01T01:02:57;85;73;46
44045;PMS7003;29709;52.396;16.796;2023-03-01T01:06:15;83;67;41
44045;PMS7003;29709;52.396;16.796;2023-03-01T01:09:29;85;71;46
44045;PMS7003;29709;52.396;16.796;2023-03-01T01:12:46;89;71;44
44045;PMS7003;29709;52.396;16.796;2023-03-01T01:16:02;88;73;45
44045;PMS7003;29709;52.396;16.796;2023-03-01T01:19:16;86;67;44
44045;PMS7003;29709;52.396;16.796;2023-03-01T01:22:30;72;49;34
44045;PMS7003;29709;52.396;16.796;2023-03-01T01:25:43;82;64;42
44045;PMS7003;29709;52.396;16.796;2023-03-01T01:28:57;83;67;42
44045;PMS7003;29709;52.396;16.796;2023-03-01T01:32:11;79;61;39
44045;PMS7003;29709;52.396;16.796;2023-03-01T01:35:24;78;63;40
44045;PMS7003;29709;52.396;16.796;2023-03-01T01:38:38;82;68;44
44045;PMS7003;29709;52.396;16.796;2023-03-01T01:41:52;78;60;40
44045;PMS7003;29709;52.396;16.796;2023-03-01T01:48:37;72;56;35
44045;PMS7003;29709;52.396;16.796;2023-03-01T01:55:25;79;63;42
44045;PMS7003;29709;52.396;16.796;2023-03-01T01:58:40;78;65;43
44045;PMS7003;29709;52.396;16.796;2023-03-01T02:01:56;59;46;33
44045;PMS7003;29709;52.396;16.796;2023-03-01T02:08:40;72;57;36
44045;PMS7003;29709;52.396;16.796;2023-03-01T02:11:55;78;64;40
44045;PMS7003;29709;52.396;16.796;2023-03-01T02:15:09;81;63;42
44045;PMS7003;29709;52.396;16.796;2023-03-01T02:18:23;76;57;38
44045;PMS7003;29709;52.396;16.796;2023-03-01T02:21:40;80;64;41
44045;PMS7003;29709;52.396;16.796;2023-03-01T02:31:51;68;53;36
44045;PMS7003;29709;52.396;16.796;2023-03-01T02:35:10;71;51;32
44045;PMS7003;29709;52.396;16.796;2023-03-01T02:38:26;76;60;39
44045;PMS7003;29709;52.396;16.796;2023-03-01T02:41:41;71;57;37
44045;PMS7003;29709;52.396;16.796;2023-03-01T02:44:58;72;56;37
44045;PMS7003;29709;52.396;16.796;2023-03-01T02:48:12;63;48;33
44045;PMS7003;29709;52.396;16.796;2023-03-01T02:51:27;73;57;36
44045;PMS7003;29709;52.396;16.796;2023-03-01T02:54:56;75;59;38
44045;PMS7003;29709;52.396;16.796;2023-03-01T02:58:17;79;57;36
44045;PMS7003;29709;52.396;16.796;2023-03-01T03:01:30;73;56;36
44045;PMS7003;29709;52.396;16.796;2023-03-01T03:04:50;67;53;36
44045;PMS7003;29709;52.396;16.796;2023-03-01T03:08:04;74;57;38
44045;PMS7003;29709;52.396;16.796;2023-03-01T03:11:17;75;56;36
44045;PMS7003;29709;52.396;16.796;2023-03-01T03:14:31;73;56;35
44045;PMS7003;29709;52.396;16.796;2023-03-01T03:17:47;66;51;33
44045;PMS7003;29709;52.396;16.796;2023-03-01T03:21:02;73;56;37
44045;PMS7003;29709;52.396;16.796;2023-03-01T03:24:15;74;58;36
44045;PMS7003;29709;52.396;16.796;2023-03-01T03:27:30;74;54;36
44045;PMS7003;29709;52.396;16.796;2023-03-01T03:30:44;70;52;35
44045;PMS7003;29709;52.396;16.796;2023-03-01T03:33:59;65;52;33
44045;PMS7003;29709;52.396;16.796;2023-03-01T03:37:13;68;51;36
44045;PMS7003;29709;52.396;16.796;2023-03-01T03:40:40;67;52;34
44045;PMS7003;29709;52.396;16.796;2023-03-01T03:43:55;71;55;35
44045;PMS7003;29709;52.396;16.796;2023-03-01T03:47:09;71;54;35
44045;PMS7003;29709;52.396;16.796;2023-03-01T03:50:22;70;54;35
44045;PMS7003;29709;52.396;16.796;2023-03-01T03:53:36;70;52;36
44045;PMS7003;29709;52.396;16.796;2023-03-01T03:56:50;64;51;34
44045;PMS7003;29709;52.396;16.796;2023-03-01T04:00:04;70;51;34
44045;PMS7003;29709;52.396;16.796;2023-03-01T04:03:26;53;40;26
44045;PMS7003;29709;52.396;16.796;2023-03-01T04:06:40;68;51;34
44045;PMS7003;29709;52.396;16.796;2023-03-01T04:09:54;68;50;33
44045;PMS7003;29709;52.396;16.796;2023-03-01T04:13:09;63;51;33
44045;PMS7003;29709;52.396;16.796;2023-03-01T04:16:25;60;47;29
44045;PMS7003;29709;52.396;16.796;2023-03-01T04:19:38;70;52;33
44045;PMS7003;29709;52.396;16.796;2023-03-01T04:22:55;58;44;27
44045;PMS7003;29709;52.396;16.796;2023-03-01T04:26:23;70;54;35
44045;PMS7003;29709;52.396;16.796;2023-03-01T04:29:36;55;43;29
44045;PMS7003;29709;52.396;16.796;2023-03-01T04:32:50;63;50;33
44045;PMS7003;29709;52.396;16.796;2023-03-01T04:36:04;71;52;33
44045;PMS7003;29709;52.396;16.796;2023-03-01T04:39:21;65;50;33
44045;PMS7003;29709;52.396;16.796;2023-03-01T04:42:34;61;48;30
44045;PMS7003;29709;52.396;16.796;2023-03-01T04:45:48;57;46;29
44045;PMS7003;29709;52.396;16.796;2023-03-01T04:49:03;69;51;33
44045;PMS7003;29709;52.396;16.796;2023-03-01T04:52:18;64;49;32
44045;PMS7003;29709;52.396;16.796;2023-03-01T04:55:31;59;44;27
44045;PMS7003;29709;52.396;16.796;2023-03-01T04:58:45;66;50;33
44045;PMS7003;29709;52.396;16.796;2023-03-01T05:01:59;59;48;33
44045;PMS7003;29709;52.396;16.796;2023-03-01T05:05:13;59;44;31
44045;PMS7003;29709;52.396;16.796;2023-03-01T05:08:26;69;52;34
44045;PMS7003;29709;52.396;16.796;2023-03-01T05:11:40;63;49;32
44045;PMS7003;29709;52.396;16.796;2023-03-01T05:14:54;65;48;33
44045;PMS7003;29709;52.396;16.796;2023-03-01T05:18:07;64;50;33
44045;PMS7003;29709;52.396;16.796;2023-03-01T05:21:24;65;52;32
44045;PMS7003;29709;52.396;16.796;2023-03-01T05:24:38;58;44;28
44045;PMS7003;29709;52.396;16.796;2023-03-01T05:27:51;67;51;31
44045;PMS7003;29709;52.396;16.796;2023-03-01T05:31:05;64;48;32
44045;PMS7003;29709;52.396;16.796;2023-03-01T05:34:25;50;42;23
44045;PMS7003;29709;52.396;16.796;2023-03-01T05:37:44;57;47;31
44045;PMS7003;29709;52.396;16.796;2023-03-01T05:40:59;66;49;32
44045;PMS7003;29709;52.396;16.796;2023-03-01T05:44:13;60;47;31
44045;PMS7003;29709;52.396;16.796;2023-03-01T05:47:27;64;52;33
44045;PMS7003;29709;52.396;16.796;2023-03-01T05:50:43;69;52;35
44045;PMS7003;29709;52.396;16.796;2023-03-01T05:53:58;63;48;33
44045;PMS7003;29709;52.396;16.796;2023-03-01T05:57:11;61;47;33
44045;PMS7003;29709;52.396;16.796;2023-03-01T06:00:25;64;48;31
44045;PMS7003;29709;52.396;16.796;2023-03-01T06:03:39;55;43;28
44045;PMS7003;29709;52.396;16.796;2023-03-01T06:06:52;50;39;29
44045;PMS7003;29709;52.396;16.796;2023-03-01T06:10:06;52;41;24
44045;PMS7003;29709;52.396;16.796;2023-03-01T06:13:22;64;50;32
44045;PMS7003;29709;52.396;16.796;2023-03-01T06:16:36;56;45;30
44045;PMS7003;29709;52.396;16.796;2023-03-01T06:19:50;67;49;32
44045;PMS7003;29709;52.396;16.796;2023-03-01T06:23:03;56;44;29
44045;PMS7003;29709;52.396;16.796;2023-03-01T06:26:17;57;46;31
44045;PMS7003;29709;52.396;16.796;2023-03-01T06:29:30;60;47;33
44045;PMS7003;29709;52.396;16.796;2023-03-01T06:32:44;65;49;31
44045;PMS7003;29709;52.396;16.796;2023-03-01T06:35:58;62;48;32
44045;PMS7003;29709;52.396;16.796;2023-03-01T06:39:11;62;47;31
44045;PMS7003;29709;52.396;16.796;2023-03-01T06:42:25;51;41;25
44045;PMS7003;29709;52.396;16.796;2023-03-01T06:45:38;62;45;28
44045;PMS7003;29709;52.396;16.796;2023-03-01T06:48:52;42;35;16
44045;PMS7003;29709;52.396;16.796;2023-03-01T06:52:05;56;46;32
44045;PMS7003;29709;52.396;16.796;2023-03-01T06:55:19;65;50;32
44045;PMS7003;29709;52.396;16.796;2023-03-01T06:58:32;57;44;27
44045;PMS7003;29709;52.396;16.796;2023-03-01T07:01:46;59;44;28
44045;PMS7003;29709;52.396;16.796;2023-03-01T07:04:59;60;48;31
44045;PMS7003;29709;52.396;16.796;2023-03-01T07:08:15;42;28;8
44045;PMS7003;29709;52.396;16.796;2023-03-01T07:11:28;58;46;31
44045;PMS7003;29709;52.396;16.796;2023-03-01T07:14:43;45;36;25
44045;PMS7003;29709;52.396;16.796;2023-03-01T07:17:57;40;33;23
44045;PMS7003;29709;52.396;16.796;2023-03-01T07:21:11;47;38;25
44045;PMS7003;29709;52.396;16.796;2023-03-01T07:24:26;45;37;23
44045;PMS7003;29709;52.396;16.796;2023-03-01T07:27:40;47;39;25
44045;PMS7003;29709;52.396;16.796;2023-03-01T07:30:53;59;47;30
44045;PMS7003;29709;52.396;16.796;2023-03-01T07:34:07;54;42;28
44045;PMS7003;29709;52.396;16.796;2023-03-01T07:37:20;58;42;27
44045;PMS7003;29709;52.396;16.796;2023-03-01T07:40:34;52;41;28
44045;PMS7003;29709;52.396;16.796;2023-03-01T07:43:48;47;36;25
44045;PMS7003;29709;52.396;16.796;2023-03-01T07:47:02;41;35;24
44045;PMS7003;29709;52.396;16.796;2023-03-01T07:50:16;39;33;23
44045;PMS7003;29709;52.396;16.796;2023-03-01T07:53:30;37;33;23
44045;PMS7003;29709;52.396;16.796;2023-03-01T07:56:46;40;31;21
44045;PMS7003;29709;52.396;16.796;2023-03-01T08:00:00;34;29;20
44045;PMS7003;29709;52.396;16.796;2023-03-01T08:03:13;28;22;17
44045;PMS7003;29709;52.396;16.796;2023-03-01T08:06:27;32;27;20
44045;PMS7003;29709;52.396;16.796;2023-03-01T08:09:40;30;26;18
44045;PMS7003;29709;52.396;16.796;2023-03-01T08:12:54;26;24;17
44045;PMS7003;29709;52.396;16.796;2023-03-01T08:16:09;25;24;16
44045;PMS7003;29709;52.396;16.796;2023-03-01T08:19:25;29;24;18
44045;PMS7003;29709;52.396;16.796;2023-03-01T08:22:40;28;24;17
44045;PMS7003;29709;52.396;16.796;2023-03-01T08:25:54;30;25;18
44045;PMS7003;29709;52.396;16.796;2023-03-01T08:29:07;34;26;19
44045;PMS7003;29709;52.396;16.796;2023-03-01T08:32:21;36;30;20
44045;PMS7003;29709;52.396;16.796;2023-03-01T08:35:34;30;27;19
44045;PMS7003;29709;52.396;16.796;2023-03-01T08:38:48;31;26;18
44045;PMS7003;29709;52.396;16.796;2023-03-01T08:42:02;30;29;20
44045;PMS7003;29709;52.396;16.796;2023-03-01T08:45:16;19;18;14
44045;PMS7003;29709;52.396;16.796;2023-03-01T08:48:31;25;22;15
44045;PMS7003;29709;52.396;16.796;2023-03-01T08:51:44;27;21;17
44045;PMS7003;29709;52.396;16.796;2023-03-01T08:54:59;34;31;22
44045;PMS7003;29709;52.396;16.796;2023-03-01T08:58:14;27;26;19
44045;PMS7003;29709;52.396;16.796;2023-03-01T09:01:27;6;5;1
44045;PMS7003;29709;52.396;16.796;2023-03-01T09:04:41;24;15;11
44045;PMS7003;29709;52.396;16.796;2023-03-01T09:07:55;16;16;12
44045;PMS7003;29709;52.396;16.796;2023-03-01T09:11:11;21;18;11
44045;PMS7003;29709;52.396;16.796;2023-03-01T09:14:26;19;18;12
44045;PMS7003;29709;52.396;16.796;2023-03-01T09:17:40;18;16;11
44045;PMS7003;29709;52.396;16.796;2023-03-01T09:21:00;9;9;7
44045;PMS7003;29709;52.396;16.796;2023-03-01T09:24:22;13;10;8
44045;PMS7003;29709;52.396;16.796;2023-03-01T09:27:37;11;8;6
44045;PMS7003;29709;52.396;16.796;2023-03-01T09:30:50;10;8;6
44045;PMS7003;29709;52.396;16.796;2023-03-01T09:34:04;10;9;6
44045;PMS7003;29709;52.396;16.796;2023-03-01T09:37:18;11;8;6
44045;PMS7003;29709;52.396;16.796;2023-03-01T09:40:31;6;6;5
44045;PMS7003;29709;52.396;16.796;2023-03-01T09:47:16;12;10;8
44045;PMS7003;29709;52.396;16.796;2023-03-01T09:50:34;10;9;6
44045;PMS7003;29709;52.396;16.796;2023-03-01T09:53:51;4;4;2
44045;PMS7003;29709;52.396;16.796;2023-03-01T10:00:37;3;3;2
44045;PMS7003;29709;52.396;16.796;2023-03-01T10:10:47;3;2;2
44045;PMS7003;29709;52.396;16.796;2023-03-01T10:14:06;3;3;2
44045;PMS7003;29709;52.396;16.796;2023-03-01T10:24:16;6;5;3
44045;PMS7003;29709;52.396;16.796;2023-03-01T10:31:01;7;4;3
44045;PMS7003;29709;52.396;16.796;2023-03-01T10:34:17;5;5;4
44045;PMS7003;29709;52.396;16.796;2023-03-01T10:37:36;5;3;3
44045;PMS7003;29709;52.396;16.796;2023-03-01T10:41:00;4;3;2
44045;PMS7003;29709;52.396;16.796;2023-03-01T10:47:44;6;6;4
44045;PMS7003;29709;52.396;16.796;2023-03-01T10:54:20;4;4;3
44045;PMS7003;29709;52.396;16.796;2023-03-01T10:57:39;6;6;5
44045;PMS7003;29709;52.396;16.796;2023-03-01T11:00:57;5;4;3
44045;PMS7003;29709;52.396;16.796;2023-03-01T11:04:15;3;3;3
44045;PMS7003;29709;52.396;16.796;2023-03-01T11:07:29;1;1;1
44045;PMS7003;29709;52.396;16.796;2023-03-01T11:10:43;3;3;3
44045;PMS7003;29709;52.396;16.796;2023-03-01T11:14:00;4;3;3
44045;PMS7003;29709;52.396;16.796;2023-03-01T11:17:24;5;4;3
44045;PMS7003;29709;52.396;16.796;2023-03-01T11:20:42;6;4;3
44045;PMS7003;29709;52.396;16.796;2023-03-01T11:23:56;5;4;3
44045;PMS7003;29709;52.396;16.796;2023-03-01T11:27:17;4;3;2
44045;PMS7003;29709;52.396;16.796;2023-03-01T11:30:38;5;4;3
44045;PMS7003;29709;52.396;16.796;2023-03-01T11:37:29;5;5;4
44045;PMS7003;29709;52.396;16.796;2023-03-01T11:44:19;3;3;2
44045;PMS7003;29709;52.396;16.796;2023-03-01T11:47:44;4;3;2
44045;PMS7003;29709;52.396;16.796;2023-03-01T11:51:04;3;2;2
44045;PMS7003;29709;52.396;16.796;2023-03-01T12:15:08;4;3;3
44045;PMS7003;29709;52.396;16.796;2023-03-01T12:22:01;3;2;2
44045;PMS7003;29709;52.396;16.796;2023-03-01T12:25:21;4;3;2
44045;PMS7003;29709;52.396;16.796;2023-03-01T12:28:55;4;4;2
44045;PMS7003;29709;52.396;16.796;2023-03-01T12:46:10;4;3;2
44045;PMS7003;29709;52.396;16.796;2023-03-01T12:52:54;4;4;3
44045;PMS7003;29709;52.396;16.796;2023-03-01T12:56:14;5;4;3
44045;PMS7003;29709;52.396;16.796;2023-03-01T13:03:00;3;3;2
44045;PMS7003;29709;52.396;16.796;2023-03-01T13:06:29;4;3;3
44045;PMS7003;29709;52.396;16.796;2023-03-01T13:09:55;2;2;1
44045;PMS7003;29709;52.396;16.796;2023-03-01T13:13:19;3;2;2
44045;PMS7003;29709;52.396;16.796;2023-03-01T13:16:39;3;3;3
44045;PMS7003;29709;52.396;16.796;2023-03-01T13:20:01;6;4;2
44045;PMS7003;29709;52.396;16.796;2023-03-01T13:27:26;4;3;2
44045;PMS7003;29709;52.396;16.796;2023-03-01T13:30:12;5;4;4
44045;PMS7003;29709;52.396;16.796;2023-03-01T13:36:52;5;3;2
44045;PMS7003;29709;52.396;16.796;2023-03-01T13:43:37;3;2;2
44045;PMS7003;29709;52.396;16.796;2023-03-01T13:46:53;4;3;2
44045;PMS7003;29709;52.396;16.796;2023-03-01T13:50:21;6;4;2
44045;PMS7003;29709;52.396;16.796;2023-03-01T13:55:47;6;5;4
44045;PMS7003;29709;52.396;16.796;2023-03-01T13:59:04;4;4;3
44045;PMS7003;29709;52.396;16.796;2023-03-01T14:02:24;2;2;1
44045;PMS7003;29709;52.396;16.796;2023-03-01T14:05:39;4;4;3
44045;PMS7003;29709;52.396;16.796;2023-03-01T14:16:11;5;4;3
44045;PMS7003;29709;52.396;16.796;2023-03-01T14:19:17;5;4;3
44045;PMS7003;29709;52.396;16.796;2023-03-01T14:22:38;4;3;2
44045;PMS7003;29709;52.396;16.796;2023-03-01T14:25:56;8;4;3
44045;PMS7003;29709;52.396;16.796;2023-03-01T14:32:36;6;5;4
44045;PMS7003;29709;52.396;16.796;2023-03-01T14:42:39;3;3;2
44045;PMS7003;29709;52.396;16.796;2023-03-01T14:45:52;5;4;4
44045;PMS7003;29709;52.396;16.796;2023-03-01T14:49:09;5;5;4
44045;PMS7003;29709;52.396;16.796;2023-03-01T14:52:29;3;3;3
44045;PMS7003;29709;52.396;16.796;2023-03-01T14:55:59;7;5;3
44045;PMS7003;29709;52.396;16.796;2023-03-01T14:59:26;6;5;4
44045;PMS7003;29709;52.396;16.796;2023-03-01T15:02:37;4;4;3
44045;PMS7003;29709;52.396;16.796;2023-03-01T15:05:52;4;4;3
44045;PMS7003;29709;52.396;16.796;2023-03-01T15:09:06;6;5;4
44045;PMS7003;29709;52.396;16.796;2023-03-01T15:15:53;5;5;4
44045;PMS7003;29709;52.396;16.796;2023-03-01T15:19:15;3;3;3
44045;PMS7003;29709;52.396;16.796;2023-03-01T15:22:32;5;5;4
44045;PMS7003;29709;52.396;16.796;2023-03-01T15:25:46;4;3;3
44045;PMS7003;29709;52.396;16.796;2023-03-01T15:28:59;5;3;2
44045;PMS7003;29709;52.396;16.796;2023-03-01T15:35:41;8;8;6
44045;PMS7003;29709;52.396;16.796;2023-03-01T15:39:00;5;4;4
44045;PMS7003;29709;52.396;16.796;2023-03-01T15:42:36;9;8;6
44045;PMS7003;29709;52.396;16.796;2023-03-01T15:45:40;6;5;4
44045;PMS7003;29709;52.396;16.796;2023-03-01T15:48:55;7;7;5
44045;PMS7003;29709;52.396;16.796;2023-03-01T15:52:21;9;8;6
44045;PMS7003;29709;52.396;16.796;2023-03-01T15:55:33;9;9;7
44045;PMS7003;29709;52.396;16.796;2023-03-01T15:58:47;10;9;7
44045;PMS7003;29709;52.396;16.796;2023-03-01T16:02:01;8;7;6
44045;PMS7003;29709;52.396;16.796;2023-03-01T16:05:19;7;7;5
44045;PMS7003;29709;52.396;16.796;2023-03-01T16:08:38;6;4;4
44045;PMS7003;29709;52.396;16.796;2023-03-01T16:11:54;5;5;4
44045;PMS7003;29709;52.396;16.796;2023-03-01T16:15:17;7;6;4
44045;PMS7003;29709;52.396;16.796;2023-03-01T16:18:32;5;5;4
44045;PMS7003;29709;52.396;16.796;2023-03-01T16:21:46;10;6;5
44045;PMS7003;29709;52.396;16.796;2023-03-01T16:25:02;7;6;5
44045;PMS7003;29709;52.396;16.796;2023-03-01T16:28:16;8;7;5
44045;PMS7003;29709;52.396;16.796;2023-03-01T16:31:30;10;9;7
44045;PMS7003;29709;52.396;16.796;2023-03-01T16:34:44;9;7;4
44045;PMS7003;29709;52.396;16.796;2023-03-01T16:37:57;23;20;15
44045;PMS7003;29709;52.396;16.796;2023-03-01T16:41:13;31;25;16
44045;PMS7003;29709;52.396;16.796;2023-03-01T16:44:28;26;22;16
44045;PMS7003;29709;52.396;16.796;2023-03-01T16:47:42;26;20;16
44045;PMS7003;29709;52.396;16.796;2023-03-01T16:50:57;18;17;12
44045;PMS7003;29709;52.396;16.796;2023-03-01T16:54:14;12;11;9
44045;PMS7003;29709;52.396;16.796;2023-03-01T16:57:28;26;22;15
44045;PMS7003;29709;52.396;16.796;2023-03-01T17:00:41;26;23;17
44045;PMS7003;29709;52.396;16.796;2023-03-01T17:03:55;25;23;19
44045;PMS7003;29709;52.396;16.796;2023-03-01T17:07:08;27;21;16
44045;PMS7003;29709;52.396;16.796;2023-03-01T17:10:22;36;30;22
44045;PMS7003;29709;52.396;16.796;2023-03-01T17:13:36;32;24;19
44045;PMS7003;29709;52.396;16.796;2023-03-01T17:16:50;36;30;21
44045;PMS7003;29709;52.396;16.796;2023-03-01T17:20:05;26;23;13
44045;PMS7003;29709;52.396;16.796;2023-03-01T17:23:20;28;24;16
44045;PMS7003;29709;52.396;16.796;2023-03-01T17:26:33;33;29;21
44045;PMS7003;29709;52.396;16.796;2023-03-01T17:29:47;19;15;7
44045;PMS7003;29709;52.396;16.796;2023-03-01T17:33:01;30;27;21
44045;PMS7003;29709;52.396;16.796;2023-03-01T17:36:15;38;31;21
44045;PMS7003;29709;52.396;16.796;2023-03-01T17:39:29;41;35;23
44045;PMS7003;29709;52.396;16.796;2023-03-01T17:42:47;42;34;24
44045;PMS7003;29709;52.396;16.796;2023-03-01T17:46:01;43;33;23
44045;PMS7003;29709;52.396;16.796;2023-03-01T17:49:14;43;34;23
44045;PMS7003;29709;52.396;16.796;2023-03-01T17:52:29;30;27;20
44045;PMS7003;29709;52.396;16.796;2023-03-01T17:55:43;30;28;20
44045;PMS7003;29709;52.396;16.796;2023-03-01T17:58:57;38;29;20
44045;PMS7003;29709;52.396;16.796;2023-03-01T18:02:11;25;24;15
44045;PMS7003;29709;52.396;16.796;2023-03-01T18:05:25;32;28;21
44045;PMS7003;29709;52.396;16.796;2023-03-01T18:08:39;33;30;19
44045;PMS7003;29709;52.396;16.796;2023-03-01T18:11:53;35;30;22
44045;PMS7003;29709;52.396;16.796;2023-03-01T18:15:07;32;28;19
44045;PMS7003;29709;52.396;16.796;2023-03-01T18:18:22;38;32;21
44045;PMS7003;29709;52.396;16.796;2023-03-01T18:21:37;38;32;22
44045;PMS7003;29709;52.396;16.796;2023-03-01T18:24:58;32;27;20
44045;PMS7003;29709;52.396;16.796;2023-03-01T18:28:14;39;32;22
44045;PMS7003;29709;52.396;16.796;2023-03-01T18:31:30;39;32;23
44045;PMS7003;29709;52.396;16.796;2023-03-01T18:34:45;33;29;21
44045;PMS7003;29709;52.396;16.796;2023-03-01T18:38:00;40;32;23
44045;PMS7003;29709;52.396;16.796;2023-03-01T18:41:14;49;39;25
44045;PMS7003;29709;52.396;16.796;2023-03-01T18:44:28;37;32;22
44045;PMS7003;29709;52.396;16.796;2023-03-01T18:47:42;31;25;14
44045;PMS7003;29709;52.396;16.796;2023-03-01T18:50:56;43;34;23
44045;PMS7003;29709;52.396;16.796;2023-03-01T18:54:10;43;34;24
44045;PMS7003;29709;52.396;16.796;2023-03-01T18:57:25;43;36;25
44045;PMS7003;29709;52.396;16.796;2023-03-01T19:00:38;44;36;23
44045;PMS7003;29709;52.396;16.796;2023-03-01T19:03:52;32;28;18
44045;PMS7003;29709;52.396;16.796;2023-03-01T19:07:08;39;33;23
44045;PMS7003;29709;52.396;16.796;2023-03-01T19:10:21;34;29;20
44045;PMS7003;29709;52.396;16.796;2023-03-01T19:13:37;37;29;22
44045;PMS7003;29709;52.396;16.796;2023-03-01T19:16:52;41;35;23
44045;PMS7003;29709;52.396;16.796;2023-03-01T19:20:06;40;31;21
44045;PMS7003;29709;52.396;16.796;2023-03-01T19:23:21;38;31;22
44045;PMS7003;29709;52.396;16.796;2023-03-01T19:26:34;27;22;12
44045;PMS7003;29709;52.396;16.796;2023-03-01T19:29:48;41;34;22
44045;PMS7003;29709;52.396;16.796;2023-03-01T19:33:02;42;33;23
44045;PMS7003;29709;52.396;16.796;2023-03-01T19:36:16;28;27;21
44045;PMS7003;29709;52.396;16.796;2023-03-01T19:39:30;48;36;25
44045;PMS7003;29709;52.396;16.796;2023-03-01T19:42:44;47;38;26
44045;PMS7003;29709;52.396;16.796;2023-03-01T19:45:58;47;38;24
44045;PMS7003;29709;52.396;16.796;2023-03-01T19:49:11;39;32;22
44045;PMS7003;29709;52.396;16.796;2023-03-01T19:52:25;43;36;24
44045;PMS7003;29709;52.396;16.796;2023-03-01T19:55:39;44;35;23
44045;PMS7003;29709;52.396;16.796;2023-03-01T19:58:54;30;28;23
44045;PMS7003;29709;52.396;16.796;2023-03-01T20:02:14;42;35;24
44045;PMS7003;29709;52.396;16.796;2023-03-01T20:05:32;43;34;23
44045;PMS7003;29709;52.396;16.796;2023-03-01T20:08:47;39;32;23
44045;PMS7003;29709;52.396;16.796;2023-03-01T20:12:01;52;41;26
44045;PMS7003;29709;52.396;16.796;2023-03-01T20:15:15;56;43;30
44045;PMS7003;29709;52.396;16.796;2023-03-01T20:18:29;52;41;26
44045;PMS7003;29709;52.396;16.796;2023-03-01T20:21:42;47;40;27
44045;PMS7003;29709;52.396;16.796;2023-03-01T20:24:56;50;41;28
44045;PMS7003;29709;52.396;16.796;2023-03-01T20:28:10;52;41;28
44045;PMS7003;29709;52.396;16.796;2023-03-01T20:31:24;57;44;29
44045;PMS7003;29709;52.396;16.796;2023-03-01T20:34:42;44;36;26
44045;PMS7003;29709;52.396;16.796;2023-03-01T20:37:55;57;43;29
44045;PMS7003;29709;52.396;16.796;2023-03-01T20:41:10;55;44;30
44045;PMS7003;29709;52.396;16.796;2023-03-01T20:44:26;52;41;25
44045;PMS7003;29709;52.396;16.796;2023-03-01T20:47:39;56;45;31
44045;PMS7003;29709;52.396;16.796;2023-03-01T20:50:53;51;41;28
44045;PMS7003;29709;52.396;16.796;2023-03-01T20:54:13;49;40;27
44045;PMS7003;29709;52.396;16.796;2023-03-01T20:57:27;50;41;27
44045;PMS7003;29709;52.396;16.796;2023-03-01T21:00:40;48;41;28
44045;PMS7003;29709;52.396;16.796;2023-03-01T21:03:54;47;39;27
44045;PMS7003;29709;52.396;16.796;2023-03-01T21:07:08;48;39;26
44045;PMS7003;29709;52.396;16.796;2023-03-01T21:10:22;40;33;22
44045;PMS7003;29709;52.396;16.796;2023-03-01T21:13:35;49;39;25
44045;PMS7003;29709;52.396;16.796;2023-03-01T21:16:49;43;33;21
44045;PMS7003;29709;52.396;16.796;2023-03-01T21:20:03;49;41;26
44045;PMS7003;29709;52.396;16.796;2023-03-01T21:23:17;48;38;24
44045;PMS7003;29709;52.396;16.796;2023-03-01T21:26:31;43;37;26
44045;PMS7003;29709;52.396;16.796;2023-03-01T21:29:45;61;46;30
44045;PMS7003;29709;52.396;16.796;2023-03-01T21:32:59;55;43;28
44045;PMS7003;29709;52.396;16.796;2023-03-01T21:36:13;56;46;30
44045;PMS7003;29709;52.396;16.796;2023-03-01T21:39:28;63;48;30
44045;PMS7003;29709;52.396;16.796;2023-03-01T21:42:42;64;49;32
44045;PMS7003;29709;52.396;16.796;2023-03-01T21:45:59;64;50;33
44045;PMS7003;29709;52.396;16.796;2023-03-01T21:49:15;64;51;34
44045;PMS7003;29709;52.396;16.796;2023-03-01T21:52:28;64;50;32
44045;PMS7003;29709;52.396;16.796;2023-03-01T21:55:45;71;55;35
44045;PMS7003;29709;52.396;16.796;2023-03-01T21:59:01;70;52;34
44045;PMS7003;29709;52.396;16.796;2023-03-01T22:02:15;62;46;27
44045;PMS7003;29709;52.396;16.796;2023-03-01T22:05:28;64;49;31
44045;PMS7003;29709;52.396;16.796;2023-03-01T22:08:43;69;50;33
44045;PMS7003;29709;52.396;16.796;2023-03-01T22:11:57;66;52;33
44045;PMS7003;29709;52.396;16.796;2023-03-01T22:15:14;68;54;36
44045;PMS7003;29709;52.396;16.796;2023-03-01T22:18:27;65;50;32
44045;PMS7003;29709;52.396;16.796;2023-03-01T22:21:42;63;48;32
44045;PMS7003;29709;52.396;16.796;2023-03-01T22:24:58;42;32;22
44045;PMS7003;29709;52.396;16.796;2023-03-01T22:28:11;60;46;29
44045;PMS7003;29709;52.396;16.796;2023-03-01T22:31:25;54;44;32
44045;PMS7003;29709;52.396;16.796;2023-03-01T22:34:39;56;44;29
44045;PMS7003;29709;52.396;16.796;2023-03-01T22:37:53;52;41;28
44045;PMS7003;29709;52.396;16.796;2023-03-01T22:41:07;37;34;24
44045;PMS7003;29709;52.396;16.796;2023-03-01T22:44:21;54;41;28
44045;PMS7003;29709;52.396;16.796;2023-03-01T22:47:35;55;42;27
44045;PMS7003;29709;52.396;16.796;2023-03-01T22:50:52;54;41;27
44045;PMS7003;29709;52.396;16.796;2023-03-01T22:54:05;43;34;24
44045;PMS7003;29709;52.396;16.796;2023-03-01T22:57:20;53;42;28
44045;PMS7003;29709;52.396;16.796;2023-03-01T23:00:33;50;39;27
44045;PMS7003;29709;52.396;16.796;2023-03-01T23:03:47;48;37;26
44045;PMS7003;29709;52.396;16.796;2023-03-01T23:07:01;56;43;28
44045;PMS7003;29709;52.396;16.796;2023-03-01T23:10:15;57;46;30